National Weather Service Raw Text Product

Displaying AFOS PIL: TAFOTM Received: 2017-10-13 05:35 UTC


560 
FTUS43 KDMX 130535
TAFOTM
TAF
KOTM 130535Z 1306/1406 14008KT P6SM BKN060
     FM132200 05009KT P6SM BKN025=